sensor_id;sensor_type;location;lat;lon;timestamp;temperature;humidity
37518;DHT22;23366;52.498;13.446;2023-10-09T00:00:24;11.00;99.90
37518;DHT22;23366;52.498;13.446;2023-10-09T00:03:06;10.90;99.90
37518;DHT22;23366;52.498;13.446;2023-10-09T00:05:32;10.90;99.90
37518;DHT22;23366;52.498;13.446;2023-10-09T00:08:10;10.80;99.90
37518;DHT22;23366;52.498;13.446;2023-10-09T00:10:36;10.80;99.90
37518;DHT22;23366;52.498;13.446;2023-10-09T00:13:14;10.80;99.90
37518;DHT22;23366;52.498;13.446;2023-10-09T00:15:39;10.80;99.90
37518;DHT22;23366;52.498;13.446;2023-10-09T00:18:06;10.80;99.90
37518;DHT22;23366;52.498;13.446;2023-10-09T00:20:40;10.80;99.90
37518;DHT22;23366;52.498;13.446;2023-10-09T00:23:08;10.90;99.90
37518;DHT22;23366;52.498;13.446;2023-10-09T00:25:51;10.80;99.90
37518;DHT22;23366;52.498;13.446;2023-10-09T00:28:36;10.80;99.90
37518;DHT22;23366;52.498;13.446;2023-10-09T00:31:04;10.80;99.90
37518;DHT22;23366;52.498;13.446;2023-10-09T00:33:32;10.80;99.90
37518;DHT22;23366;52.498;13.446;2023-10-09T00:36:02;10.80;99.90
37518;DHT22;23366;52.498;13.446;2023-10-09T00:38:34;10.70;99.90
37518;DHT22;23366;52.498;13.446;2023-10-09T00:41:00;10.70;99.90
37518;DHT22;23366;52.498;13.446;2023-10-09T00:43:35;10.60;99.90
37518;DHT22;23366;52.498;13.446;2023-10-09T00:46:05;10.50;99.90
37518;DHT22;23366;52.498;13.446;2023-10-09T00:48:56;10.50;99.90
37518;DHT22;23366;52.498;13.446;2023-10-09T00:51:23;10.40;99.90
37518;DHT22;23366;52.498;13.446;2023-10-09T00:53:54;10.30;99.90
37518;DHT22;23366;52.498;13.446;2023-10-09T00:56:22;10.30;99.90
37518;DHT22;23366;52.498;13.446;2023-10-09T00:58:51;10.20;99.90
37518;DHT22;23366;52.498;13.446;2023-10-09T01:01:40;10.20;99.90
37518;DHT22;23366;52.498;13.446;2023-10-09T01:04:10;10.10;99.90
37518;DHT22;23366;52.498;13.446;2023-10-09T01:06:41;10.10;99.90
37518;DHT22;23366;52.498;13.446;2023-10-09T01:09:14;10.10;99.90
37518;DHT22;23366;52.498;13.446;2023-10-09T01:11:40;10.00;99.90
37518;DHT22;23366;52.498;13.446;2023-10-09T01:14:30;10.00;99.90
37518;DHT22;23366;52.498;13.446;2023-10-09T01:16:57;10.00;99.90
37518;DHT22;23366;52.498;13.446;2023-10-09T01:19:23;10.10;99.90
37518;DHT22;23366;52.498;13.446;2023-10-09T01:21:56;10.10;99.90
37518;DHT22;23366;52.498;13.446;2023-10-09T01:24:29;10.10;99.90
37518;DHT22;23366;52.498;13.446;2023-10-09T01:26:57;10.10;99.90
37518;DHT22;23366;52.498;13.446;2023-10-09T01:29:24;10.10;99.90
37518;DHT22;23366;52.498;13.446;2023-10-09T01:31:54;10.10;99.90
37518;DHT22;23366;52.498;13.446;2023-10-09T01:34:24;10.00;99.90
37518;DHT22;23366;52.498;13.446;2023-10-09T01:36:51;10.00;99.90
37518;DHT22;23366;52.498;13.446;2023-10-09T01:39:19;10.00;99.90
37518;DHT22;23366;52.498;13.446;2023-10-09T01:41:53;9.90;99.90
37518;DHT22;23366;52.498;13.446;2023-10-09T01:44:25;9.90;99.90
37518;DHT22;23366;52.498;13.446;2023-10-09T01:46:52;9.90;99.90
37518;DHT22;23366;52.498;13.446;2023-10-09T01:49:20;9.90;99.90
37518;DHT22;23366;52.498;13.446;2023-10-09T01:51:56;9.90;99.90
37518;DHT22;23366;52.498;13.446;2023-10-09T01:54:25;9.90;99.90
37518;DHT22;23366;52.498;13.446;2023-10-09T01:57:05;9.90;99.90
37518;DHT22;23366;52.498;13.446;2023-10-09T01:59:41;9.80;99.90
37518;DHT22;23366;52.498;13.446;2023-10-09T02:02:11;9.80;99.90
37518;DHT22;23366;52.498;13.446;2023-10-09T02:04:50;9.80;99.90
37518;DHT22;23366;52.498;13.446;2023-10-09T02:07:15;9.80;99.90
37518;DHT22;23366;52.498;13.446;2023-10-09T02:09:47;9.80;99.90
37518;DHT22;23366;52.498;13.446;2023-10-09T02:12:13;9.80;99.90
37518;DHT22;23366;52.498;13.446;2023-10-09T02:14:38;9.90;99.90
37518;DHT22;23366;52.498;13.446;2023-10-09T02:17:07;9.90;99.90
37518;DHT22;23366;52.498;13.446;2023-10-09T02:19:45;9.90;99.90
37518;DHT22;23366;52.498;13.446;2023-10-09T02:22:15;10.00;99.90
37518;DHT22;23366;52.498;13.446;2023-10-09T02:24:43;10.00;99.90
37518;DHT22;23366;52.498;13.446;2023-10-09T02:27:19;10.00;99.90
37518;DHT22;23366;52.498;13.446;2023-10-09T02:30:04;10.10;99.90
37518;DHT22;23366;52.498;13.446;2023-10-09T02:32:45;10.10;99.90
37518;DHT22;23366;52.498;13.446;2023-10-09T02:35:18;10.10;99.90
37518;DHT22;23366;52.498;13.446;2023-10-09T02:38:02;10.00;99.90
37518;DHT22;23366;52.498;13.446;2023-10-09T02:40:30;10.00;99.90
37518;DHT22;23366;52.498;13.446;2023-10-09T02:43:05;10.00;99.90
37518;DHT22;23366;52.498;13.446;2023-10-09T02:45:30;10.10;99.90
37518;DHT22;23366;52.498;13.446;2023-10-09T02:48:00;10.20;99.90
37518;DHT22;23366;52.498;13.446;2023-10-09T02:50:34;10.20;99.90
37518;DHT22;23366;52.498;13.446;2023-10-09T02:53:03;10.20;99.90
37518;DHT22;23366;52.498;13.446;2023-10-09T02:55:35;10.20;99.90
37518;DHT22;23366;52.498;13.446;2023-10-09T02:58:04;10.10;99.90
37518;DHT22;23366;52.498;13.446;2023-10-09T03:00:37;10.10;99.90
37518;DHT22;23366;52.498;13.446;2023-10-09T03:03:04;10.10;99.90
37518;DHT22;23366;52.498;13.446;2023-10-09T03:05:32;10.10;99.90
37518;DHT22;23366;52.498;13.446;2023-10-09T03:07:58;10.00;99.90
37518;DHT22;23366;52.498;13.446;2023-10-09T03:10:24;10.10;99.90
37518;DHT22;23366;52.498;13.446;2023-10-09T03:12:51;10.00;99.90
37518;DHT22;23366;52.498;13.446;2023-10-09T03:15:17;10.00;99.90
37518;DHT22;23366;52.498;13.446;2023-10-09T03:17:44;10.00;99.90
37518;DHT22;23366;52.498;13.446;2023-10-09T03:20:10;10.00;99.90
37518;DHT22;23366;52.498;13.446;2023-10-09T03:22:40;10.00;99.90
37518;DHT22;23366;52.498;13.446;2023-10-09T03:25:06;10.00;99.90
37518;DHT22;23366;52.498;13.446;2023-10-09T03:27:40;10.00;99.90
37518;DHT22;23366;52.498;13.446;2023-10-09T03:30:16;10.00;99.90
37518;DHT22;23366;52.498;13.446;2023-10-09T03:32:45;10.00;99.90
37518;DHT22;23366;52.498;13.446;2023-10-09T03:35:19;10.00;99.90
37518;DHT22;23366;52.498;13.446;2023-10-09T03:37:55;10.00;99.90
37518;DHT22;23366;52.498;13.446;2023-10-09T03:40:23;10.00;99.90
37518;DHT22;23366;52.498;13.446;2023-10-09T03:42:49;10.00;99.90
37518;DHT22;23366;52.498;13.446;2023-10-09T03:45:14;9.90;99.90
37518;DHT22;23366;52.498;13.446;2023-10-09T03:47:57;10.00;99.90
37518;DHT22;23366;52.498;13.446;2023-10-09T03:50:34;9.90;99.90
37518;DHT22;23366;52.498;13.446;2023-10-09T03:53:06;9.90;99.90
37518;DHT22;23366;52.498;13.446;2023-10-09T03:55:35;9.90;99.90
37518;DHT22;23366;52.498;13.446;2023-10-09T03:58:00;9.90;99.90
37518;DHT22;23366;52.498;13.446;2023-10-09T04:00:28;9.90;99.90
37518;DHT22;23366;52.498;13.446;2023-10-09T04:02:55;9.90;99.90
37518;DHT22;23366;52.498;13.446;2023-10-09T04:05:22;9.90;99.90
37518;DHT22;23366;52.498;13.446;2023-10-09T04:07:47;9.90;99.90
37518;DHT22;23366;52.498;13.446;2023-10-09T04:10:14;9.90;99.90
37518;DHT22;23366;52.498;13.446;2023-10-09T04:12:58;9.80;99.90
37518;DHT22;23366;52.498;13.446;2023-10-09T04:15:26;9.80;99.90
37518;DHT22;23366;52.498;13.446;2023-10-09T04:17:55;9.80;99.90
37518;DHT22;23366;52.498;13.446;2023-10-09T04:20:23;9.90;99.90
37518;DHT22;23366;52.498;13.446;2023-10-09T04:22:48;9.80;99.90
37518;DHT22;23366;52.498;13.446;2023-10-09T04:25:20;9.70;99.90
37518;DHT22;23366;52.498;13.446;2023-10-09T04:27:59;9.70;99.90
37518;DHT22;23366;52.498;13.446;2023-10-09T04:30:40;9.80;99.90
37518;DHT22;23366;52.498;13.446;2023-10-09T04:33:06;9.70;99.90
37518;DHT22;23366;52.498;13.446;2023-10-09T04:35:50;9.70;99.90
37518;DHT22;23366;52.498;13.446;2023-10-09T04:38:36;9.80;99.90
37518;DHT22;23366;52.498;13.446;2023-10-09T04:41:05;9.70;99.90
37518;DHT22;23366;52.498;13.446;2023-10-09T04:43:30;9.70;99.90
37518;DHT22;23366;52.498;13.446;2023-10-09T04:45:58;9.70;99.90
37518;DHT22;23366;52.498;13.446;2023-10-09T04:48:37;9.70;99.90
37518;DHT22;23366;52.498;13.446;2023-10-09T04:51:11;9.70;99.90
37518;DHT22;23366;52.498;13.446;2023-10-09T04:53:46;9.70;99.90
37518;DHT22;23366;52.498;13.446;2023-10-09T04:56:20;9.70;99.90
37518;DHT22;23366;52.498;13.446;2023-10-09T04:58:49;9.80;99.90
37518;DHT22;23366;52.498;13.446;2023-10-09T05:01:21;9.80;99.90
37518;DHT22;23366;52.498;13.446;2023-10-09T05:04:01;9.80;99.90
37518;DHT22;23366;52.498;13.446;2023-10-09T05:06:29;9.80;99.90
37518;DHT22;23366;52.498;13.446;2023-10-09T05:09:08;9.70;99.90
37518;DHT22;23366;52.498;13.446;2023-10-09T05:11:34;9.70;99.90
37518;DHT22;23366;52.498;13.446;2023-10-09T05:14:18;9.60;99.90
37518;DHT22;23366;52.498;13.446;2023-10-09T05:16:52;9.60;99.90
37518;DHT22;23366;52.498;13.446;2023-10-09T05:19:24;9.60;99.90
37518;DHT22;23366;52.498;13.446;2023-10-09T05:22:08;9.60;99.90
37518;DHT22;23366;52.498;13.446;2023-10-09T05:24:43;9.60;99.90
37518;DHT22;23366;52.498;13.446;2023-10-09T05:27:12;9.60;99.90
37518;DHT22;23366;52.498;13.446;2023-10-09T05:29:44;9.60;99.90
37518;DHT22;23366;52.498;13.446;2023-10-09T05:32:35;9.50;99.90
37518;DHT22;23366;52.498;13.446;2023-10-09T05:35:02;9.50;99.90
37518;DHT22;23366;52.498;13.446;2023-10-09T05:37:32;9.50;99.90
37518;DHT22;23366;52.498;13.446;2023-10-09T05:40:03;9.50;99.90
37518;DHT22;23366;52.498;13.446;2023-10-09T05:42:35;9.50;99.90
37518;DHT22;23366;52.498;13.446;2023-10-09T05:47:43;9.40;99.90
37518;DHT22;23366;52.498;13.446;2023-10-09T05:50:28;9.40;99.90
37518;DHT22;23366;52.498;13.446;2023-10-09T05:52:56;9.30;99.90
37518;DHT22;23366;52.498;13.446;2023-10-09T05:55:25;9.30;99.90
37518;DHT22;23366;52.498;13.446;2023-10-09T05:58:09;9.30;99.90
37518;DHT22;23366;52.498;13.446;2023-10-09T06:00:53;9.30;99.90
37518;DHT22;23366;52.498;13.446;2023-10-09T06:03:37;9.20;99.90
37518;DHT22;23366;52.498;13.446;2023-10-09T06:06:22;9.20;99.90
37518;DHT22;23366;52.498;13.446;2023-10-09T06:09:08;9.20;99.90
37518;DHT22;23366;52.498;13.446;2023-10-09T06:11:46;9.20;99.90
37518;DHT22;23366;52.498;13.446;2023-10-09T06:14:18;9.20;99.90
37518;DHT22;23366;52.498;13.446;2023-10-09T06:16:52;9.20;99.90
37518;DHT22;23366;52.498;13.446;2023-10-09T06:19:27;9.30;99.90
37518;DHT22;23366;52.498;13.446;2023-10-09T06:21:58;9.30;99.90
37518;DHT22;23366;52.498;13.446;2023-10-09T06:24:42;9.40;99.90
37518;DHT22;23366;52.498;13.446;2023-10-09T06:27:08;9.40;99.90
37518;DHT22;23366;52.498;13.446;2023-10-09T06:29:41;9.50;99.90
37518;DHT22;23366;52.498;13.446;2023-10-09T06:32:11;9.50;99.90
37518;DHT22;23366;52.498;13.446;2023-10-09T06:35:01;9.50;99.90
37518;DHT22;23366;52.498;13.446;2023-10-09T06:37:48;9.60;99.90
37518;DHT22;23366;52.498;13.446;2023-10-09T06:40:37;9.60;99.90
37518;DHT22;23366;52.498;13.446;2023-10-09T06:43:19;9.60;99.90
37518;DHT22;23366;52.498;13.446;2023-10-09T06:48:23;9.70;99.90
37518;DHT22;23366;52.498;13.446;2023-10-09T06:51:06;9.70;99.90
37518;DHT22;23366;52.498;13.446;2023-10-09T06:53:53;9.80;99.90
37518;DHT22;23366;52.498;13.446;2023-10-09T06:58:50;9.80;99.90
